createdAt,value
2023-02-02T00:01:11.872Z,98030.86
2023-02-02T00:03:39.051Z,98032.73
2023-02-02T00:06:06.207Z,98033.95
2023-02-02T00:08:35.496Z,98031.34
2023-02-02T00:11:03.047Z,98032.89
2023-02-02T00:13:29.873Z,98039.25
2023-02-02T00:15:56.783Z,98040.14
2023-02-02T00:18:23.665Z,98039.30
2023-02-02T00:20:50.447Z,98036.20
2023-02-02T00:23:17.262Z,98038.39
2023-02-02T00:25:44.238Z,98037.00
2023-02-02T00:28:11.205Z,98036.30
2023-02-02T00:30:38.160Z,98030.73
2023-02-02T00:33:05.566Z,98026.55
2023-02-02T00:35:32.451Z,98028.05
2023-02-02T00:37:59.403Z,98031.27
2023-02-02T00:40:26.403Z,98028.18
2023-02-02T00:42:53.400Z,98029.37
2023-02-02T00:45:20.672Z,98029.85
2023-02-02T00:47:48.647Z,98028.58
2023-02-02T00:50:17.242Z,98027.84
2023-02-02T00:52:44.085Z,98026.44
2023-02-02T00:55:11.741Z,98023.02
2023-02-02T00:57:38.921Z,98020.90
2023-02-02T01:00:09.114Z,98015.20
2023-02-02T01:02:35.896Z,98018.44
2023-02-02T01:05:03.179Z,98013.41
2023-02-02T01:07:30.586Z,98012.95
2023-02-02T01:09:57.423Z,98016.57
2023-02-02T01:12:24.272Z,98014.49
2023-02-02T01:14:51.212Z,98013.31
2023-02-02T01:17:18.953Z,98011.06
2023-02-02T01:19:45.858Z,98008.70
2023-02-02T01:22:12.817Z,98016.66
2023-02-02T01:24:39.632Z,98014.79
2023-02-02T01:27:06.559Z,98010.45
2023-02-02T01:29:33.392Z,98011.85
2023-02-02T01:32:00.452Z,98006.42
2023-02-02T01:34:27.623Z,98004.88
2023-02-02T01:36:54.525Z,97998.37
2023-02-02T01:39:21.363Z,97998.39
2023-02-02T01:41:48.296Z,97998.25
2023-02-02T01:44:33.839Z,97993.34
2023-02-02T01:47:01.895Z,97993.46
2023-02-02T01:49:29.229Z,97989.38
2023-02-02T01:51:58.591Z,97987.50
2023-02-02T01:54:37.913Z,97985.45
2023-02-02T01:57:08.005Z,97982.64
2023-02-02T01:59:35.302Z,97985.79
2023-02-02T02:02:02.689Z,97991.31
2023-02-02T02:04:31.160Z,97991.42
2023-02-02T02:06:59.538Z,97989.38
2023-02-02T02:09:26.477Z,97985.85
2023-02-02T02:11:53.919Z,97979.71
2023-02-02T02:14:41.099Z,97975.27
2023-02-02T02:17:24.924Z,97972.23
2023-02-02T02:20:13.654Z,97967.64
2023-02-02T02:22:59.763Z,97962.71
2023-02-02T02:25:57.700Z,97960.10
2023-02-02T02:28:35.399Z,97961.14
2023-02-02T02:31:02.320Z,97960.09
2023-02-02T02:33:47.729Z,97959.95
2023-02-02T02:36:33.764Z,97967.17
2023-02-02T02:39:21.160Z,97965.67
2023-02-02T02:41:49.877Z,97963.94
2023-02-02T02:44:19.932Z,97965.13
2023-02-02T02:46:47.701Z,97958.28
2023-02-02T02:49:15.251Z,97952.95
2023-02-02T02:51:47.094Z,97948.65
2023-02-02T02:54:20.410Z,97949.35
2023-02-02T02:57:05.368Z,97948.58
2023-02-02T02:59:41.470Z,97945.71
2023-02-02T03:02:23.939Z,97942.43
2023-02-02T03:04:50.885Z,97942.21
2023-02-02T03:07:23.080Z,97939.42
2023-02-02T03:09:51.423Z,97934.36
2023-02-02T03:12:18.306Z,97929.50
2023-02-02T03:14:45.209Z,97924.52
2023-02-02T03:17:12.147Z,97919.80
2023-02-02T03:19:39.170Z,97918.73
2023-02-02T03:22:06.009Z,97912.04
2023-02-02T03:24:32.814Z,97913.69
2023-02-02T03:26:59.686Z,97910.58
2023-02-02T03:29:27.148Z,97906.05
2023-02-02T03:31:54.050Z,97901.21
2023-02-02T03:34:20.939Z,97900.65
2023-02-02T03:36:47.863Z,97898.83
2023-02-02T03:39:14.697Z,97896.55
2023-02-02T03:41:41.594Z,97891.55
2023-02-02T03:44:08.587Z,97891.42
2023-02-02T03:46:35.491Z,97891.08
2023-02-02T03:49:02.453Z,97888.31
2023-02-02T03:51:29.494Z,97884.11
2023-02-02T03:53:56.443Z,97882.45
2023-02-02T03:56:23.348Z,97876.73
2023-02-02T03:58:50.174Z,97874.19
2023-02-02T04:01:17.197Z,97866.97
2023-02-02T04:03:45.800Z,97862.00
2023-02-02T04:06:12.752Z,97860.74
2023-02-02T04:08:39.595Z,97851.91
2023-02-02T04:11:09.164Z,97855.50
2023-02-02T04:13:36.120Z,97854.42
2023-02-02T04:16:03.263Z,97853.35
2023-02-02T04:18:30.162Z,97846.95
2023-02-02T04:21:01.113Z,97847.28
2023-02-02T04:23:28.529Z,97845.69
2023-02-02T04:25:55.534Z,97844.31
2023-02-02T04:28:23.472Z,97842.57
2023-02-02T04:30:51.015Z,97849.23
2023-02-02T04:33:18.133Z,97847.96
2023-02-02T04:35:45.249Z,97849.34
2023-02-02T04:38:12.616Z,97847.08
2023-02-02T04:40:43.454Z,97847.27
2023-02-02T04:43:10.404Z,97843.49
2023-02-02T04:45:37.599Z,97841.41
2023-02-02T04:48:05.158Z,97841.21
2023-02-02T04:50:32.121Z,97842.56
2023-02-02T04:52:58.997Z,97839.94
2023-02-02T04:55:26.310Z,97840.59
2023-02-02T04:57:53.410Z,97836.94
2023-02-02T05:00:20.537Z,97844.86
2023-02-02T05:02:47.783Z,97847.98
2023-02-02T05:05:14.826Z,97848.17
2023-02-02T05:07:41.832Z,97846.77
2023-02-02T05:10:09.387Z,97849.98
2023-02-02T05:12:36.231Z,97850.15
2023-02-02T05:15:04.884Z,97850.69
2023-02-02T05:17:32.432Z,97851.88
2023-02-02T05:19:59.596Z,97855.85
2023-02-02T05:22:26.779Z,97853.61
2023-02-02T05:24:53.802Z,97853.61
2023-02-02T05:27:20.727Z,97855.11
2023-02-02T05:29:47.819Z,97859.73
2023-02-02T05:32:14.854Z,97858.36
2023-02-02T05:34:41.717Z,97858.84
2023-02-02T05:37:08.638Z,97864.55
2023-02-02T05:39:35.421Z,97864.06
2023-02-02T05:42:02.329Z,97865.24
2023-02-02T05:44:29.147Z,97865.40
2023-02-02T05:46:56.005Z,97867.50
2023-02-02T05:49:22.853Z,97867.14
2023-02-02T05:51:51.644Z,97863.52
2023-02-02T05:54:20.049Z,97862.02
2023-02-02T05:56:47.981Z,97864.05
2023-02-02T05:59:15.185Z,97861.63
2023-02-02T06:01:42.159Z,97864.88
2023-02-02T06:04:09.206Z,97867.67
2023-02-02T06:06:37.425Z,97868.80
2023-02-02T06:09:04.926Z,97870.05
2023-02-02T06:11:31.926Z,97870.60
2023-02-02T06:13:58.863Z,97871.33
2023-02-02T06:16:26.024Z,97875.05
2023-02-02T06:18:53.473Z,97875.30
2023-02-02T06:21:22.778Z,97877.44
2023-02-02T06:23:50.042Z,97877.14
2023-02-02T06:26:17.706Z,97875.52
2023-02-02T06:28:48.340Z,97874.58
2023-02-02T06:31:18.782Z,97878.30
2023-02-02T06:33:46.668Z,97878.44
2023-02-02T06:36:13.796Z,97883.92
2023-02-02T06:38:40.748Z,97888.09
2023-02-02T06:41:07.801Z,97886.61
2023-02-02T06:43:34.731Z,97888.73
2023-02-02T06:46:01.571Z,97891.52
2023-02-02T06:48:28.522Z,97891.17
2023-02-02T06:50:59.035Z,97889.48
2023-02-02T06:53:26.660Z,97891.35
2023-02-02T06:55:57.966Z,97891.84
2023-02-02T06:58:24.762Z,97892.56
2023-02-02T07:00:52.012Z,97896.15
2023-02-02T07:03:20.927Z,97895.17
2023-02-02T07:05:57.225Z,97898.26
2023-02-02T07:08:24.037Z,97898.98
2023-02-02T07:11:14.513Z,97895.60
2023-02-02T07:13:37.794Z,97898.70
2023-02-02T07:16:05.239Z,97899.78
2023-02-02T07:18:32.180Z,97895.91
2023-02-02T07:20:59.981Z,97901.13
2023-02-02T07:23:27.412Z,97905.98
2023-02-02T07:26:01.221Z,97905.64
2023-02-02T07:28:28.393Z,97901.85
2023-02-02T07:30:55.629Z,97903.52
2023-02-02T07:33:22.917Z,97901.63
2023-02-02T07:35:49.884Z,97905.33
2023-02-02T07:38:16.745Z,97903.34
2023-02-02T07:40:44.634Z,97905.68
2023-02-02T07:43:11.584Z,97910.31
2023-02-02T07:45:39.320Z,97910.77
2023-02-02T07:48:06.414Z,97910.55
2023-02-02T07:50:33.364Z,97912.19
2023-02-02T07:53:00.605Z,97918.48
2023-02-02T07:55:27.961Z,97927.89
2023-02-02T07:57:58.354Z,97927.63
2023-02-02T08:00:26.145Z,97927.07
2023-02-02T08:02:53.215Z,97928.55
2023-02-02T08:05:22.051Z,97930.51
2023-02-02T08:07:49.235Z,97934.52
2023-02-02T08:10:16.206Z,97939.71
2023-02-02T08:12:43.064Z,97942.27
2023-02-02T08:15:13.225Z,97942.58
2023-02-02T08:17:43.728Z,97942.83
2023-02-02T08:20:12.482Z,97947.40
2023-02-02T08:22:39.578Z,97944.35
2023-02-02T08:25:06.762Z,97946.33
2023-02-02T08:27:33.749Z,97944.86
2023-02-02T08:30:01.064Z,97950.32
2023-02-02T08:32:30.411Z,97946.65
2023-02-02T08:34:57.361Z,97944.05
2023-02-02T08:37:24.419Z,97941.98
2023-02-02T08:39:51.303Z,97939.63
2023-02-02T08:42:18.388Z,97940.79
2023-02-02T08:46:07.730Z,97941.60
2023-02-02T08:47:32.332Z,97944.82
2023-02-02T08:49:59.611Z,97945.98
2023-02-02T08:52:26.758Z,97948.94
2023-02-02T08:54:53.682Z,97949.08
2023-02-02T08:57:20.765Z,97956.40
2023-02-02T08:59:47.721Z,97960.68
2023-02-02T09:02:16.292Z,97957.72
2023-02-02T09:04:44.922Z,97961.52
2023-02-02T09:07:11.900Z,97970.51
2023-02-02T09:09:38.781Z,97971.27
2023-02-02T09:12:05.877Z,97972.39
2023-02-02T09:14:32.797Z,97973.70
2023-02-02T09:17:00.113Z,97973.73
2023-02-02T09:19:27.047Z,97970.69
2023-02-02T09:21:53.881Z,97967.23
2023-02-02T09:24:20.756Z,97969.14
2023-02-02T09:26:47.707Z,97972.61
2023-02-02T09:29:17.386Z,97976.86
2023-02-02T09:31:44.655Z,97973.52
2023-02-02T09:34:12.499Z,97973.48
2023-02-02T09:36:41.926Z,97977.94
2023-02-02T09:39:12.175Z,97977.56
2023-02-02T09:41:40.001Z,97982.79
2023-02-02T09:44:25.854Z,97980.13
2023-02-02T09:47:11.495Z,97979.89
2023-02-02T09:49:52.329Z,97975.04
2023-02-02T09:52:22.367Z,97978.38
2023-02-02T09:54:51.865Z,97978.52
2023-02-02T09:57:39.076Z,97980.67
2023-02-02T10:00:10.288Z,97983.04
2023-02-02T10:02:45.358Z,97981.25
2023-02-02T10:05:18.841Z,97982.06
2023-02-02T10:07:48.270Z,97982.61
2023-02-02T10:10:32.783Z,97982.39
2023-02-02T10:13:06.417Z,97982.77
2023-02-02T10:15:45.672Z,97986.67
2023-02-02T10:18:18.437Z,97988.03
2023-02-02T10:20:45.495Z,97984.67
2023-02-02T10:23:16.540Z,97987.74
2023-02-02T10:25:49.796Z,97990.37
2023-02-02T10:28:18.111Z,97989.07
2023-02-02T10:30:55.093Z,97984.68
2023-02-02T10:33:48.262Z,97991.19
2023-02-02T10:36:27.340Z,97991.63
2023-02-02T10:39:03.012Z,97989.27
2023-02-02T10:41:56.125Z,97991.44
2023-02-02T10:44:43.295Z,97980.89
2023-02-02T10:47:12.684Z,97985.04
2023-02-02T10:49:40.692Z,97982.95
2023-02-02T10:52:10.777Z,97985.27
2023-02-02T10:54:56.667Z,97990.36
2023-02-02T10:57:34.350Z,97993.08
2023-02-02T11:00:10.497Z,97991.29
2023-02-02T11:02:37.483Z,97997.52
2023-02-02T11:05:23.413Z,97998.86
2023-02-02T11:07:53.680Z,97992.23
2023-02-02T11:10:20.715Z,97996.52
2023-02-02T11:12:52.517Z,97993.36
2023-02-02T11:15:25.308Z,97995.94
2023-02-02T11:17:52.328Z,97992.43
2023-02-02T11:20:25.428Z,97988.52
2023-02-02T11:22:59.971Z,97988.40
2023-02-02T11:25:31.844Z,97989.81
2023-02-02T11:28:00.391Z,97990.70
2023-02-02T11:30:33.717Z,97992.77
2023-02-02T11:33:19.060Z,97994.16
2023-02-02T11:35:54.293Z,98001.19
2023-02-02T11:38:21.562Z,98002.41
2023-02-02T11:41:10.545Z,98011.44
2023-02-02T11:43:41.636Z,98014.50
2023-02-02T11:46:35.113Z,98011.14
2023-02-02T11:49:04.537Z,98015.67
2023-02-02T11:51:31.954Z,98018.91
2023-02-02T11:54:01.586Z,98014.09
2023-02-02T11:56:28.828Z,98016.33
2023-02-02T11:58:58.711Z,98016.86
2023-02-02T12:01:30.430Z,98016.67
2023-02-02T12:04:01.890Z,98019.15
2023-02-02T12:06:38.478Z,98018.45
2023-02-02T12:09:11.503Z,98017.00
2023-02-02T12:11:44.326Z,98014.65
2023-02-02T12:14:22.739Z,98018.27
2023-02-02T12:16:55.933Z,98014.37
2023-02-02T12:19:25.544Z,98003.50
2023-02-02T12:22:11.547Z,97999.95
2023-02-02T12:24:44.926Z,97996.58
2023-02-02T12:27:11.978Z,97996.69
2023-02-02T12:29:51.622Z,97991.52
2023-02-02T12:32:18.499Z,97995.23
2023-02-02T12:34:53.116Z,97993.95
2023-02-02T12:37:32.317Z,98002.52
2023-02-02T12:39:59.387Z,98005.69
2023-02-02T12:42:49.978Z,98001.71
2023-02-02T12:45:23.595Z,98010.18
2023-02-02T12:48:09.455Z,98006.60
2023-02-02T12:50:42.854Z,98016.25
2023-02-02T12:53:28.228Z,98020.88
2023-02-02T12:55:55.381Z,98025.16
2023-02-02T12:58:32.900Z,98022.35
2023-02-02T13:01:07.070Z,98020.09
2023-02-02T13:03:34.412Z,98020.09
2023-02-02T13:06:04.836Z,98015.23
2023-02-02T13:08:32.037Z,98012.69
2023-02-02T13:11:07.891Z,98009.92
2023-02-02T13:13:38.012Z,98013.15
2023-02-02T13:16:08.204Z,98018.02
2023-02-02T13:18:42.145Z,98021.80
2023-02-02T13:21:16.363Z,98019.77
2023-02-02T13:23:45.878Z,98026.19
2023-02-02T13:26:16.275Z,98030.30
2023-02-02T13:28:54.588Z,98027.35
2023-02-02T13:31:43.426Z,98029.86
2023-02-02T13:34:16.874Z,98036.88
2023-02-02T13:36:47.132Z,98024.94
2023-02-02T13:39:23.967Z,98021.05
2023-02-02T13:41:51.841Z,98028.66
2023-02-02T13:44:27.900Z,98030.42
2023-02-02T13:47:21.453Z,98029.73
2023-02-02T13:49:52.608Z,98026.00
2023-02-02T13:52:32.343Z,98023.56
2023-02-02T13:55:13.109Z,98023.63
2023-02-02T13:57:58.892Z,98026.60
2023-02-02T14:00:33.136Z,98030.23
2023-02-02T14:03:04.768Z,98032.67
2023-02-02T14:05:34.818Z,98032.41
2023-02-02T14:08:07.977Z,98032.58
2023-02-02T14:10:36.366Z,98029.41
2023-02-02T14:13:29.919Z,98033.02
2023-02-02T14:15:57.913Z,98033.96
2023-02-02T14:18:43.674Z,98035.85
2023-02-02T14:21:10.847Z,98041.38
2023-02-02T14:23:53.837Z,98043.57
2023-02-02T14:26:39.965Z,98042.76
2023-02-02T14:29:36.175Z,98046.35
2023-02-02T14:32:11.139Z,98045.39
2023-02-02T14:34:39.696Z,98039.17
2023-02-02T14:37:12.764Z,98038.76
2023-02-02T14:39:53.326Z,98038.55
2023-02-02T14:42:52.902Z,98040.70
2023-02-02T14:45:31.437Z,98041.80
2023-02-02T14:47:59.671Z,98040.71
2023-02-02T14:50:35.673Z,98044.84
2023-02-02T14:53:15.219Z,98049.05
2023-02-02T14:56:02.628Z,98053.09
2023-02-02T14:58:34.597Z,98057.14
2023-02-02T15:01:07.997Z,98059.33
2023-02-02T15:03:36.580Z,98058.89
2023-02-02T15:06:14.107Z,98065.48
2023-02-02T15:08:41.139Z,98067.01
2023-02-02T15:11:44.307Z,98069.58
2023-02-02T15:14:14.940Z,98069.54
2023-02-02T15:16:42.619Z,98065.52
2023-02-02T15:19:32.888Z,98069.37
2023-02-02T15:22:05.075Z,98075.41
2023-02-02T15:24:35.695Z,98079.66
2023-02-02T15:27:04.185Z,98080.45
2023-02-02T15:29:42.387Z,98086.41
2023-02-02T15:32:14.762Z,98091.02
2023-02-02T15:34:44.884Z,98087.73
2023-02-02T15:37:14.605Z,98093.67
2023-02-02T15:39:45.444Z,98099.51
2023-02-02T15:42:40.329Z,98103.04
2023-02-02T15:45:27.543Z,98106.19
2023-02-02T15:47:55.720Z,98104.63
2023-02-02T15:50:22.991Z,98107.21
2023-02-02T15:52:51.278Z,98104.70
2023-02-02T15:55:23.247Z,98110.59
2023-02-02T15:57:54.882Z,98114.56
2023-02-02T16:00:37.426Z,98114.02
2023-02-02T16:03:09.969Z,98112.55
2023-02-02T16:05:37.840Z,98111.52
2023-02-02T16:08:13.228Z,98111.88
2023-02-02T16:10:40.448Z,98108.67
2023-02-02T16:13:07.499Z,98114.05
2023-02-02T16:15:34.553Z,98115.24
2023-02-02T16:18:10.149Z,98117.27
2023-02-02T16:20:37.869Z,98117.40
2023-02-02T16:23:09.728Z,98117.67
2023-02-02T16:25:47.862Z,98118.55
2023-02-02T16:28:16.525Z,98119.05
2023-02-02T16:30:44.947Z,98118.13
2023-02-02T16:33:27.722Z,98123.89
2023-02-02T16:35:55.087Z,98120.89
2023-02-02T16:38:22.034Z,98116.59
2023-02-02T16:40:50.003Z,98124.80
2023-02-02T16:43:19.315Z,98127.25
2023-02-02T16:45:54.868Z,98127.45
2023-02-02T16:48:30.520Z,98122.42
2023-02-02T16:51:15.878Z,98127.84
2023-02-02T16:53:47.325Z,98128.12
2023-02-02T16:56:33.420Z,98126.89
2023-02-02T16:59:21.552Z,98125.05
2023-02-02T17:01:50.682Z,98129.63
2023-02-02T17:04:20.882Z,98145.40
2023-02-02T17:06:52.772Z,98162.62
2023-02-02T17:09:29.309Z,98151.88
2023-02-02T17:11:58.535Z,98142.62
2023-02-02T17:14:35.799Z,98163.41
2023-02-02T17:17:04.801Z,98172.45
2023-02-02T17:19:32.160Z,98179.98
2023-02-02T17:22:00.644Z,98184.05
2023-02-02T17:24:27.924Z,98185.27
2023-02-02T17:26:55.183Z,98190.61
2023-02-02T17:29:22.722Z,98195.21
2023-02-02T17:31:51.515Z,98197.89
2023-02-02T17:34:18.946Z,98191.55
2023-02-02T17:36:46.052Z,98196.64
2023-02-02T17:39:13.290Z,98198.06
2023-02-02T17:41:40.455Z,98203.73
2023-02-02T17:44:09.472Z,98205.54
2023-02-02T17:46:39.789Z,98205.95
2023-02-02T17:49:07.235Z,98206.80
2023-02-02T17:51:40.631Z,98209.59
2023-02-02T17:54:12.086Z,98212.00
2023-02-02T17:56:39.568Z,98212.05
2023-02-02T17:59:07.013Z,98215.11
2023-02-02T18:01:36.996Z,98215.48
2023-02-02T18:04:06.029Z,98215.80
2023-02-02T18:06:32.983Z,98215.20
2023-02-02T18:09:00.235Z,98215.35
2023-02-02T18:11:27.292Z,98211.23
2023-02-02T18:13:54.244Z,98213.07
2023-02-02T18:16:21.436Z,98215.46
2023-02-02T18:18:48.755Z,98216.98
2023-02-02T18:21:16.220Z,98220.90
2023-02-02T18:23:46.649Z,98223.15
2023-02-02T18:26:18.376Z,98219.84
2023-02-02T18:28:48.264Z,98233.81
2023-02-02T18:31:17.130Z,98238.55
2023-02-02T18:33:44.758Z,98240.92
2023-02-02T18:36:13.608Z,98237.10
2023-02-02T18:38:41.554Z,98237.91
2023-02-02T18:41:08.824Z,98245.69
2023-02-02T18:43:35.967Z,98239.39
2023-02-02T18:46:05.741Z,98237.34
2023-02-02T18:48:32.895Z,98237.48
2023-02-02T18:51:03.576Z,98246.11
2023-02-02T18:53:30.733Z,98250.03
2023-02-02T18:55:57.796Z,98253.23
2023-02-02T18:58:27.208Z,98258.68
2023-02-02T19:00:54.241Z,98264.44
2023-02-02T19:03:21.403Z,98265.67
2023-02-02T19:06:07.285Z,98269.48
2023-02-02T19:08:34.439Z,98272.70
2023-02-02T19:11:07.733Z,98274.28
2023-02-02T19:13:34.893Z,98271.10
2023-02-02T19:16:16.600Z,98274.16
2023-02-02T19:18:45.781Z,98280.94
2023-02-02T19:21:15.922Z,98272.44
2023-02-02T19:23:45.622Z,98281.09
2023-02-02T19:26:24.170Z,98274.46
2023-02-02T19:28:52.211Z,98281.73
2023-02-02T19:31:19.474Z,98288.30
2023-02-02T19:33:48.566Z,98285.37
2023-02-02T19:36:27.179Z,98287.45
2023-02-02T19:39:14.538Z,98290.14
2023-02-02T19:41:42.779Z,98290.93
2023-02-02T19:44:20.184Z,98288.41
2023-02-02T19:46:49.305Z,98297.39
2023-02-02T19:49:19.801Z,98298.55
2023-02-02T19:51:54.394Z,98299.35
2023-02-02T19:54:29.368Z,98308.55
2023-02-02T19:56:57.946Z,98309.64
2023-02-02T19:59:29.913Z,98314.81
2023-02-02T20:01:57.991Z,98315.97
2023-02-02T20:04:27.297Z,98320.67
2023-02-02T20:06:59.508Z,98326.74
2023-02-02T20:09:29.487Z,98326.62
2023-02-02T20:11:56.951Z,98338.53
2023-02-02T20:14:32.803Z,98338.91
2023-02-02T20:17:02.725Z,98339.80
2023-02-02T20:19:32.989Z,98341.23
2023-02-02T20:22:00.816Z,98346.59
2023-02-02T20:24:32.171Z,98342.19
2023-02-02T20:27:04.398Z,98346.45
2023-02-02T20:29:40.508Z,98346.42
2023-02-02T20:32:17.271Z,98350.81
2023-02-02T20:34:44.850Z,98350.47
2023-02-02T20:37:11.894Z,98350.10
2023-02-02T20:39:47.377Z,98358.78
2023-02-02T20:42:16.434Z,98360.20
2023-02-02T20:44:43.489Z,98362.85
2023-02-02T20:47:10.747Z,98363.73
2023-02-02T20:49:38.309Z,98368.83
2023-02-02T20:52:07.523Z,98373.95
2023-02-02T20:54:34.667Z,98376.02
2023-02-02T20:57:01.942Z,98382.02
2023-02-02T20:59:29.095Z,98385.05
2023-02-02T21:01:56.415Z,98385.87
2023-02-02T21:04:23.704Z,98385.80
2023-02-02T21:06:50.957Z,98390.92
2023-02-02T21:09:18.040Z,98396.00
2023-02-02T21:11:45.061Z,98395.80
2023-02-02T21:14:12.425Z,98394.02
2023-02-02T21:16:39.624Z,98394.21
2023-02-02T21:19:06.545Z,98403.56
2023-02-02T21:21:33.748Z,98405.95
2023-02-02T21:24:01.152Z,98406.27
2023-02-02T21:26:29.780Z,98397.65
2023-02-02T21:28:57.915Z,98405.71
2023-02-02T21:31:25.459Z,98411.71
2023-02-02T21:33:52.774Z,98419.59
2023-02-02T21:36:25.934Z,98423.69
2023-02-02T21:38:54.113Z,98427.97
2023-02-02T21:41:21.103Z,98429.83
2023-02-02T21:43:48.113Z,98436.79
2023-02-02T21:46:19.038Z,98438.42
2023-02-02T21:48:47.540Z,98442.81
2023-02-02T21:51:23.818Z,98445.29
2023-02-02T21:53:51.472Z,98444.93
2023-02-02T21:56:32.035Z,98452.49
2023-02-02T21:58:59.905Z,98460.14
2023-02-02T22:01:30.157Z,98463.49
2023-02-02T22:03:57.490Z,98463.64
2023-02-02T22:06:35.228Z,98458.46
2023-02-02T22:09:11.899Z,98459.98
2023-02-02T22:11:51.291Z,98464.74
2023-02-02T22:14:24.422Z,98474.55
2023-02-02T22:16:52.670Z,98477.46
2023-02-02T22:19:25.551Z,98479.34
2023-02-02T22:21:53.635Z,98481.89
2023-02-02T22:24:20.885Z,98477.23
2023-02-02T22:26:48.156Z,98482.16
2023-02-02T22:29:16.719Z,98483.69
2023-02-02T22:31:43.998Z,98487.03
2023-02-02T22:34:11.145Z,98495.30
2023-02-02T22:36:38.311Z,98490.48
2023-02-02T22:39:05.557Z,98482.96
2023-02-02T22:41:32.686Z,98486.66
2023-02-02T22:43:59.869Z,98489.31
2023-02-02T22:46:27.074Z,98491.79
2023-02-02T22:48:54.098Z,98491.84
2023-02-02T22:51:21.135Z,98491.71
2023-02-02T22:53:48.349Z,98493.44
2023-02-02T22:56:15.445Z,98489.35
2023-02-02T22:58:42.497Z,98495.91
2023-02-02T23:01:11.237Z,98505.30
2023-02-02T23:03:38.402Z,98508.99
2023-02-02T23:06:05.499Z,98512.48
2023-02-02T23:08:33.573Z,98518.48
2023-02-02T23:11:00.836Z,98522.98
2023-02-02T23:13:28.098Z,98524.61
2023-02-02T23:15:56.306Z,98524.73
2023-02-02T23:18:23.320Z,98533.86
2023-02-02T23:20:50.481Z,98534.41
2023-02-02T23:23:17.531Z,98540.23
2023-02-02T23:25:44.692Z,98546.71
2023-02-02T23:28:12.709Z,98548.42
2023-02-02T23:30:39.834Z,98552.58
2023-02-02T23:33:06.972Z,98553.48
2023-02-02T23:35:33.919Z,98558.30
2023-02-02T23:38:00.870Z,98566.80
2023-02-02T23:40:28.202Z,98567.71
2023-02-02T23:42:55.709Z,98569.52
2023-02-02T23:45:22.858Z,98576.73
2023-02-02T23:47:49.901Z,98578.58
2023-02-02T23:50:17.160Z,98577.61
2023-02-02T23:52:44.521Z,98578.14
2023-02-02T23:55:11.694Z,98579.48
2023-02-02T23:57:38.829Z,98577.27
